Time;durP1;ratioP1;P1;durP2;ratioP2;P2;SDS_P1;SDS_P2;PMS_P1;PMS_P2;Temp;Humidity;BMP_temperature;BMP_pressure;BME280_temperature;BME280_humidity;BME280_pressure;Samples;Min_cycle;Max_cycle;Signal;HPM_P1;HPM_P2
2023/11/03 00:01:55;;;;;;;11.07;3.77;;;;;16.00;94037.00;;;;5030225;28;20205;-82
2023/11/03 00:04:44;;;;;;;6.43;2.20;;;;;15.60;94048.00;;;;5031018;28;20209;-84
2023/11/03 00:07:34;;;;;;;4.90;1.80;;;;;15.40;94046.00;;;;5036492;28;20724;-85
2023/11/03 00:10:23;;;;;;;9.30;3.17;;;;;15.90;94031.00;;;;5037898;28;20205;-84
2023/11/03 00:13:12;;;;;;;6.40;2.17;;;;;15.90;94044.00;;;;5037235;28;20212;-82
2023/11/03 00:16:02;;;;;;;5.27;1.97;;;;;16.10;94030.00;;;;5031096;28;20225;-83
2023/11/03 00:18:51;;;;;;;14.73;4.70;;;;;16.00;94032.00;;;;5029778;28;20205;-86
2023/11/03 00:21:40;;;;;;;5.53;1.90;;;;;15.60;94024.00;;;;5031535;28;20215;-82
2023/11/03 00:24:31;;;;;;;10.33;3.53;;;;;15.80;94029.00;;;;5029426;28;20212;-85
2023/11/03 00:27:21;;;;;;;12.90;4.30;;;;;14.80;94023.00;;;;5030151;28;20626;-86
2023/11/03 00:30:11;;;;;;;8.63;2.87;;;;;15.50;94025.00;;;;5030061;28;20561;-85
2023/11/03 00:33:00;;;;;;;7.27;2.47;;;;;15.50;94026.00;;;;5028573;28;20210;-85
2023/11/03 00:35:49;;;;;;;8.33;2.90;;;;;15.60;94019.00;;;;5026584;28;20221;-85
2023/11/03 00:38:38;;;;;;;5.13;1.83;;;;;15.30;94005.00;;;;5031634;28;20226;-85
2023/11/03 00:41:29;;;;;;;9.70;3.37;;;;;14.40;94019.00;;;;5034645;28;20205;-85
2023/11/03 00:44:18;;;;;;;10.23;3.37;;;;;14.50;94013.00;;;;5029425;28;20209;-84
2023/11/03 00:47:08;;;;;;;12.40;4.07;;;;;15.10;94018.00;;;;5029143;28;20217;-84
2023/11/03 00:49:57;;;;;;;7.80;2.63;;;;;15.30;94005.00;;;;5030478;28;20209;-85
2023/11/03 00:52:46;;;;;;;5.93;2.13;;;;;15.50;94007.00;;;;5028523;28;20852;-85
2023/11/03 00:55:35;;;;;;;7.40;2.60;;;;;15.30;94001.00;;;;5028297;28;20607;-86
2023/11/03 00:58:26;;;;;;;7.10;2.40;;;;;15.20;93991.00;;;;5029969;28;20221;-85
2023/11/03 01:01:15;;;;;;;9.00;3.00;;;;;15.20;93988.00;;;;5028347;28;20212;-84
2023/11/03 01:04:05;;;;;;;8.30;2.83;;;;;15.40;93991.00;;;;5030496;28;20198;-83
2023/11/03 01:06:54;;;;;;;14.00;4.63;;;;;15.40;93991.00;;;;5027542;28;20227;-85
2023/11/03 01:09:44;;;;;;;4.63;1.70;;;;;15.60;93988.00;;;;5039834;28;20200;-84
2023/11/03 01:12:33;;;;;;;10.83;3.77;;;;;15.60;93993.00;;;;5029053;28;20201;-85
2023/11/03 01:15:23;;;;;;;17.63;5.67;;;;;15.60;93969.00;;;;5031818;28;20208;-84
2023/11/03 01:18:13;;;;;;;8.47;2.90;;;;;15.20;93946.00;;;;5035368;28;20220;-84
2023/11/03 01:21:09;;;;;;;6.83;2.27;;;;;15.20;93951.00;;;;5025734;28;20201;-85
2023/11/03 01:23:58;;;;;;;6.67;2.30;;;;;15.00;93956.00;;;;5026334;28;20204;-85
2023/11/03 01:26:47;;;;;;;9.43;3.20;;;;;15.30;93965.00;;;;5027073;28;20602;-84
2023/11/03 01:29:36;;;;;;;6.80;2.37;;;;;15.40;93967.00;;;;5029764;28;20201;-83
2023/11/03 01:32:26;;;;;;;7.10;2.40;;;;;15.20;93958.00;;;;5028090;28;20209;-87
2023/11/03 01:35:15;;;;;;;6.57;2.23;;;;;15.20;93944.00;;;;5027113;28;20602;-85
2023/11/03 01:38:05;;;;;;;9.20;3.03;;;;;15.50;93936.00;;;;5029847;28;20217;-85
2023/11/03 01:40:54;;;;;;;6.73;2.40;;;;;15.40;93934.00;;;;5026282;28;20220;-86
2023/11/03 01:44:03;;;;;;;7.30;2.50;;;;;15.20;93924.00;;;;5025722;28;20205;-87
2023/11/03 01:46:52;;;;;;;17.87;5.67;;;;;14.80;93920.00;;;;5025692;28;20236;-85
2023/11/03 01:49:44;;;;;;;15.83;5.07;;;;;14.80;93897.00;;;;5037060;28;20199;-85
2023/11/03 01:52:34;;;;;;;10.37;3.53;;;;;14.60;93895.00;;;;5028002;28;20209;-87
2023/11/03 01:55:24;;;;;;;14.20;4.63;;;;;14.90;93907.00;;;;5029964;28;20887;-85
2023/11/03 01:58:14;;;;;;;9.27;3.07;;;;;14.60;93899.00;;;;5027617;28;20217;-85
2023/11/03 02:01:04;;;;;;;7.70;2.70;;;;;15.30;93902.00;;;;5028625;28;20692;-86
2023/11/03 02:03:53;;;;;;;4.57;1.67;;;;;15.40;93893.00;;;;5034562;28;20209;-86
2023/11/03 02:06:44;;;;;;;6.87;2.37;;;;;14.80;93904.00;;;;5026955;28;20228;-87
2023/11/03 02:09:33;;;;;;;14.03;4.60;;;;;14.70;93898.00;;;;5027551;28;20205;-87
2023/11/03 02:12:22;;;;;;;9.97;3.37;;;;;14.50;93912.00;;;;5027350;28;20201;-86
2023/11/03 02:15:12;;;;;;;7.47;2.60;;;;;14.70;93906.00;;;;5028811;28;20205;-86
2023/11/03 02:18:01;;;;;;;5.13;1.90;;;;;14.80;93902.00;;;;5025989;28;20229;-85
2023/11/03 02:20:50;;;;;;;8.53;2.87;;;;;15.00;93906.00;;;;5040135;28;20824;-86
2023/11/03 02:23:41;;;;;;;8.90;2.90;;;;;14.70;93889.00;;;;5032747;28;20670;-87
2023/11/03 02:26:30;;;;;;;10.40;3.47;;;;;14.70;93892.00;;;;5034917;28;20236;-87
2023/11/03 02:29:19;;;;;;;12.30;3.93;;;;;14.40;93912.00;;;;5034684;28;20205;-87
2023/11/03 02:32:09;;;;;;;5.27;1.80;;;;;14.10;93921.00;;;;5031837;28;20204;-86
2023/11/03 02:34:58;;;;;;;7.87;2.73;;;;;14.60;93914.00;;;;5021868;28;20214;-86
2023/11/03 02:37:47;;;;;;;8.43;2.83;;;;;14.30;93901.00;;;;5015157;28;20230;-87
2023/11/03 02:40:38;;;;;;;8.33;2.77;;;;;14.30;93913.00;;;;5021390;28;20209;-86
2023/11/03 02:43:27;;;;;;;13.97;4.57;;;;;14.60;93920.00;;;;5011055;28;20545;-87
2023/11/03 02:46:16;;;;;;;9.23;3.07;;;;;15.10;93908.00;;;;5020417;28;20225;-87
2023/11/03 02:49:05;;;;;;;9.93;3.23;;;;;15.10;93908.00;;;;5015041;28;20202;-88
2023/11/03 02:51:54;;;;;;;9.53;3.17;;;;;15.30;93892.00;;;;5017467;28;20220;-88
2023/11/03 02:54:43;;;;;;;9.97;3.27;;;;;15.30;93906.00;;;;5019889;28;20209;-87
2023/11/03 02:57:34;;;;;;;14.00;4.57;;;;;15.40;93895.00;;;;5014102;28;20225;-88
2023/11/03 03:00:23;;;;;;;7.33;2.63;;;;;15.40;93890.00;;;;5016360;28;20209;-87
2023/11/03 03:03:12;;;;;;;8.17;2.77;;;;;15.40;93885.00;;;;5042567;28;20201;-88
2023/11/03 03:06:01;;;;;;;7.53;2.63;;;;;15.40;93866.00;;;;5032949;28;20217;-90
2023/11/03 03:08:51;;;;;;;15.70;6.63;;;;;15.20;93868.00;;;;5025186;28;20268;-88
2023/11/03 03:11:41;;;;;;;7.70;3.70;;;;;14.90;93889.00;;;;5029956;28;20208;-87
2023/11/03 03:14:31;;;;;;;14.53;5.03;;;;;14.60;93882.00;;;;5015733;28;20209;-87
2023/11/03 03:17:20;;;;;;;15.57;5.03;;;;;14.10;93877.00;;;;5020440;28;20224;-88
2023/11/03 03:20:10;;;;;;;10.03;3.30;;;;;14.90;93859.00;;;;5017465;28;20229;-88
2023/11/03 03:22:59;;;;;;;6.83;2.27;;;;;15.20;93866.00;;;;5013660;28;20206;-88
2023/11/03 03:25:48;;;;;;;7.37;2.50;;;;;15.20;93845.00;;;;5016535;28;20221;-88
2023/11/03 03:28:37;;;;;;;7.83;2.67;;;;;15.30;93818.00;;;;5022207;28;20198;-88
2023/11/03 03:31:28;;;;;;;15.57;4.93;;;;;15.20;93817.00;;;;5016567;28;20213;-87
2023/11/03 03:34:17;;;;;;;11.67;4.13;;;;;15.20;93811.00;;;;5022688;28;20581;-88
2023/11/03 03:37:06;;;;;;;14.53;5.00;;;;;15.30;93795.00;;;;5035545;28;20228;-88
2023/11/03 03:39:56;;;;;;;8.77;2.83;;;;;15.40;93790.00;;;;5036007;28;20698;-88
2023/11/03 03:42:45;;;;;;;8.07;2.70;;;;;15.30;93798.00;;;;5038962;28;20212;-86
2023/11/03 03:45:34;;;;;;;13.30;4.47;;;;;15.20;93791.00;;;;5033981;28;20221;-87
2023/11/03 03:48:24;;;;;;;13.17;4.40;;;;;15.20;93801.00;;;;5033232;28;20197;-87
2023/11/03 03:51:13;;;;;;;8.40;2.87;;;;;15.30;93805.00;;;;5035103;28;20849;-87
2023/11/03 03:54:02;;;;;;;6.30;2.30;;;;;15.20;93787.00;;;;5033925;28;20208;-87
2023/11/03 03:56:51;;;;;;;9.80;3.33;;;;;14.90;93807.00;;;;5035474;28;20234;-88
2023/11/03 03:59:40;;;;;;;5.53;2.03;;;;;14.70;93814.00;;;;5027638;28;20231;-88
2023/11/03 04:02:29;;;;;;;12.47;4.07;;;;;14.60;93802.00;;;;5037058;28;20202;-87
2023/11/03 04:05:20;;;;;;;10.60;3.60;;;;;14.80;93796.00;;;;5033095;28;20205;-88
2023/11/03 04:08:09;;;;;;;9.50;3.17;;;;;15.00;93800.00;;;;5031979;28;20193;-86
2023/11/03 04:11:00;;;;;;;8.83;2.90;;;;;15.10;93795.00;;;;5033093;28;20205;-87
2023/11/03 04:13:49;;;;;;;8.77;2.90;;;;;15.20;93808.00;;;;5028810;28;20285;-87
2023/11/03 04:16:38;;;;;;;8.13;2.77;;;;;15.20;93842.00;;;;5030532;28;20228;-88
2023/11/03 04:19:27;;;;;;;13.93;10.43;;;;;15.20;93861.00;;;;5030094;28;20221;-86
2023/11/03 04:22:18;;;;;;;8.57;2.93;;;;;15.20;93863.00;;;;5031601;28;20216;-90
2023/11/03 04:25:07;;;;;;;7.93;2.70;;;;;15.30;93872.00;;;;5028712;28;20202;-87
2023/11/03 04:27:56;;;;;;;10.50;3.33;;;;;15.00;93874.00;;;;5031331;28;20259;-88
2023/11/03 04:30:45;;;;;;;8.40;2.83;;;;;14.80;93879.00;;;;5033095;28;20584;-86
2023/11/03 04:33:34;;;;;;;11.90;4.00;;;;;14.70;93864.00;;;;5030633;28;20208;-87
2023/11/03 04:36:24;;;;;;;12.70;4.23;;;;;14.50;93866.00;;;;5029260;28;20221;-87
2023/11/03 04:39:14;;;;;;;7.40;2.50;;;;;14.50;93881.00;;;;5028908;28;20236;-87
2023/11/03 04:42:04;;;;;;;9.30;3.03;;;;;14.50;93863.00;;;;5031513;28;20203;-87
2023/11/03 04:44:53;;;;;;;6.30;2.17;;;;;14.50;93848.00;;;;5024939;28;20204;-87
2023/11/03 04:47:42;;;;;;;6.37;2.13;;;;;14.30;93856.00;;;;5029819;28;20193;-87
2023/11/03 04:50:31;;;;;;;11.07;3.70;;;;;13.90;93838.00;;;;5028963;28;20209;-88
2023/11/03 04:53:20;;;;;;;8.80;2.97;;;;;14.10;93821.00;;;;5029704;28;20425;-87
2023/11/03 04:56:11;;;;;;;9.67;3.20;;;;;14.00;93823.00;;;;5030856;28;20224;-85
2023/11/03 04:59:00;;;;;;;5.93;2.03;;;;;13.90;93809.00;;;;5031165;28;20224;-87
2023/11/03 05:01:49;;;;;;;10.83;3.57;;;;;13.90;93774.00;;;;5031345;28;20213;-87
2023/11/03 05:04:38;;;;;;;8.80;2.87;;;;;13.80;93755.00;;;;5026554;28;20205;-87
2023/11/03 05:07:27;;;;;;;11.83;3.97;;;;;13.60;93745.00;;;;5028259;28;20225;-87
2023/11/03 05:10:19;;;;;;;7.90;2.67;;;;;13.70;93712.00;;;;5029181;28;20196;-87
2023/11/03 05:13:10;;;;;;;8.90;2.87;;;;;13.50;93706.00;;;;5032494;28;20224;-86
2023/11/03 05:15:59;;;;;;;7.97;2.63;;;;;13.30;93697.00;;;;5029400;28;20225;-86
2023/11/03 05:18:48;;;;;;;15.17;4.70;;;;;13.50;93712.00;;;;5026860;28;20208;-86
2023/11/03 05:21:37;;;;;;;8.43;2.77;;;;;13.60;93715.00;;;;5029027;28;20206;-87
2023/11/03 05:24:27;;;;;;;8.47;2.87;;;;;13.60;93708.00;;;;5028564;28;20213;-86
2023/11/03 05:27:16;;;;;;;7.67;2.57;;;;;13.50;93699.00;;;;5030058;28;20354;-86
2023/11/03 05:30:08;;;;;;;9.53;3.27;;;;;13.50;93702.00;;;;5029528;28;20725;-87
2023/11/03 05:32:57;;;;;;;4.87;1.93;;;;;13.40;93690.00;;;;5026094;28;20209;-86
2023/11/03 05:35:46;;;;;;;7.90;2.90;;;;;13.20;93673.00;;;;5024798;28;20229;-87
2023/11/03 05:38:35;;;;;;;13.40;4.57;;;;;12.40;93675.00;;;;5029902;28;20414;-86
2023/11/03 05:41:24;;;;;;;11.93;3.80;;;;;12.60;93704.00;;;;5035045;28;20201;-86
2023/11/03 05:44:13;;;;;;;6.13;2.13;;;;;12.70;93709.00;;;;5029444;28;20733;-86
2023/11/03 05:47:04;;;;;;;10.87;3.60;;;;;12.70;93747.00;;;;5029769;28;20229;-87
2023/11/03 05:49:53;;;;;;;6.77;2.17;;;;;12.90;93756.00;;;;5030813;28;20228;-87
2023/11/03 05:52:42;;;;;;;5.63;1.97;;;;;13.10;93761.00;;;;5029890;28;20559;-86
2023/11/03 05:55:31;;;;;;;13.47;4.27;;;;;13.30;93776.00;;;;5025721;28;20205;-86
2023/11/03 05:58:20;;;;;;;8.60;2.90;;;;;13.30;93777.00;;;;5029258;28;20217;-86
2023/11/03 06:01:09;;;;;;;12.13;4.00;;;;;13.30;93771.00;;;;5025524;28;20744;-88
2023/11/03 06:04:00;;;;;;;8.37;2.80;;;;;13.20;93772.00;;;;5023577;28;20596;-87
2023/11/03 06:06:49;;;;;;;8.87;3.03;;;;;13.20;93739.00;;;;5028343;28;20221;-86
2023/11/03 06:09:40;;;;;;;8.40;2.70;;;;;13.00;93740.00;;;;5024535;28;20816;-87
2023/11/03 06:12:29;;;;;;;15.33;4.90;;;;;12.80;93736.00;;;;5024209;28;20202;-86
2023/11/03 06:15:18;;;;;;;6.83;2.47;;;;;13.00;93733.00;;;;5029133;28;20213;-85
2023/11/03 06:18:07;;;;;;;6.97;2.20;;;;;13.00;93738.00;;;;5025942;28;20216;-86
2023/11/03 06:20:58;;;;;;;7.53;2.53;;;;;13.10;93693.00;;;;5028461;28;20233;-87
2023/11/03 06:23:47;;;;;;;7.17;2.40;;;;;13.10;93621.00;;;;5029512;28;20223;-87
2023/11/03 06:26:36;;;;;;;19.93;6.53;;;;;12.80;93629.00;;;;5032788;28;20231;-86
2023/11/03 06:29:25;;;;;;;21.57;6.70;;;;;12.60;93656.00;;;;5031014;28;20204;-84
2023/11/03 06:32:14;;;;;;;10.93;3.50;;;;;12.70;93706.00;;;;5023361;28;20202;-84
2023/11/03 06:35:03;;;;;;;13.00;4.07;;;;;12.00;93731.00;;;;5017431;28;20216;-84
2023/11/03 06:37:54;;;;;;;8.20;2.73;;;;;12.40;93760.00;;;;5013218;28;20209;-85
2023/11/03 06:40:43;;;;;;;9.37;3.07;;;;;12.80;93761.00;;;;5016034;28;20233;-84
2023/11/03 06:43:32;;;;;;;17.13;7.17;;;;;12.60;93768.00;;;;5005217;28;20206;-85
2023/11/03 06:46:22;;;;;;;14.63;4.77;;;;;12.50;93790.00;;;;5007009;28;20218;-83
2023/11/03 06:49:11;;;;;;;10.50;3.27;;;;;12.70;93778.00;;;;5003831;28;20225;-84
2023/11/03 06:52:00;;;;;;;11.47;3.93;;;;;13.00;93761.00;;;;5005670;28;20675;-83
2023/11/03 06:54:50;;;;;;;12.47;6.53;;;;;12.90;93727.00;;;;5008225;28;20221;-84
2023/11/03 06:57:41;;;;;;;8.93;2.93;;;;;13.00;93719.00;;;;5005161;28;20353;-86
2023/11/03 07:00:30;;;;;;;16.70;5.30;;;;;13.30;93711.00;;;;5005037;28;20225;-84
2023/11/03 07:03:19;;;;;;;10.47;3.47;;;;;13.10;93652.00;;;;5005436;28;20198;-84
2023/11/03 07:06:08;;;;;;;21.93;16.80;;;;;13.20;93621.00;;;;5016124;28;20217;-85
2023/11/03 07:08:57;;;;;;;16.93;5.27;;;;;13.30;93583.00;;;;5005366;28;20210;-84
2023/11/03 07:11:48;;;;;;;12.17;3.93;;;;;13.30;93512.00;;;;5010462;28;20202;-84
2023/11/03 07:14:37;;;;;;;18.67;5.93;;;;;13.30;93504.00;;;;5016219;28;20216;-83
2023/11/03 07:17:26;;;;;;;8.60;2.87;;;;;12.90;93548.00;;;;5014582;28;20226;-85
2023/11/03 07:20:15;;;;;;;10.43;3.60;;;;;12.60;93627.00;;;;5012064;28;20275;-86
2023/11/03 07:23:07;;;;;;;18.10;13.47;;;;;12.50;93675.00;;;;5017621;28;20210;-86
2023/11/03 07:25:57;;;;;;;12.37;3.87;;;;;12.80;93670.00;;;;5010607;28;20783;-86
2023/11/03 07:28:47;;;;;;;19.47;5.90;;;;;13.30;93649.00;;;;5008205;28;20206;-84
2023/11/03 07:31:38;;;;;;;18.00;5.73;;;;;13.40;93689.00;;;;5003231;28;20210;-85
2023/11/03 07:34:27;;;;;;;9.13;2.97;;;;;13.50;93716.00;;;;5020942;28;20225;-85
2023/11/03 07:37:17;;;;;;;9.03;2.97;;;;;13.80;93745.00;;;;5030795;28;20225;-87
2023/11/03 07:40:07;;;;;;;10.33;3.40;;;;;14.00;93750.00;;;;5026870;28;20583;-85
2023/11/03 07:42:56;;;;;;;9.53;3.23;;;;;14.40;93743.00;;;;5032634;28;20211;-85
2023/11/03 07:45:47;;;;;;;13.53;4.67;;;;;14.10;93724.00;;;;5033479;28;20229;-86
2023/11/03 07:48:36;;;;;;;27.13;16.40;;;;;14.40;93693.00;;;;5030413;28;20212;-86
2023/11/03 07:51:25;;;;;;;15.90;5.17;;;;;14.50;93706.00;;;;5029916;28;20256;-87
2023/11/03 07:54:15;;;;;;;10.20;3.23;;;;;14.60;93684.00;;;;5047923;28;20198;-86
2023/11/03 07:57:04;;;;;;;10.47;3.40;;;;;14.80;93639.00;;;;5048524;28;20236;-86
2023/11/03 07:59:54;;;;;;;8.23;2.80;;;;;14.80;93641.00;;;;5037368;28;20209;-86
2023/11/03 08:02:45;;;;;;;11.07;3.53;;;;;14.70;93631.00;;;;5032610;28;20472;-86
2023/11/03 08:05:34;;;;;;;21.63;6.80;;;;;14.90;93652.00;;;;5032603;28;20659;-86
2023/11/03 08:08:23;;;;;;;14.13;4.57;;;;;14.80;93663.00;;;;5032122;28;20201;-87
2023/11/03 08:11:12;;;;;;;11.07;3.83;;;;;14.60;93679.00;;;;5031309;28;20683;-86
2023/11/03 08:14:02;;;;;;;10.53;3.47;;;;;14.90;93701.00;;;;5029147;28;20201;-86
2023/11/03 08:16:51;;;;;;;12.67;4.30;;;;;15.10;93716.00;;;;5031541;28;20232;-86
2023/11/03 08:19:45;;;;;;;11.37;3.77;;;;;14.90;93697.00;;;;5030370;28;20216;-86
2023/11/03 08:22:35;;;;;;;15.33;4.93;;;;;15.30;93710.00;;;;5031021;28;20229;-86
2023/11/03 08:25:24;;;;;;;23.30;7.27;;;;;15.20;93729.00;;;;5029857;28;20205;-86
2023/11/03 08:28:14;;;;;;;10.27;3.60;;;;;15.20;93725.00;;;;5030119;28;20205;-86
2023/11/03 08:31:03;;;;;;;8.10;2.87;;;;;15.40;93728.00;;;;5031832;28;20276;-85
2023/11/03 08:33:52;;;;;;;9.63;3.63;;;;;15.60;93733.00;;;;5030463;28;20223;-86
2023/11/03 08:36:43;;;;;;;12.40;4.17;;;;;15.60;93720.00;;;;5028604;28;20251;-86
2023/11/03 08:39:33;;;;;;;18.17;5.93;;;;;15.50;93722.00;;;;5035480;28;20252;-86
2023/11/03 08:42:22;;;;;;;9.90;3.67;;;;;15.40;93740.00;;;;5029355;28;20237;-86
2023/11/03 08:45:12;;;;;;;10.50;4.10;;;;;15.00;93733.00;;;;5029462;28;20205;-86
2023/11/03 08:48:02;;;;;;;11.13;5.10;;;;;15.50;93741.00;;;;5030458;28;20209;-85
2023/11/03 08:50:52;;;;;;;20.47;18.00;;;;;15.50;93759.00;;;;5032242;28;20205;-85
2023/11/03 08:53:44;;;;;;;10.17;3.97;;;;;15.40;93749.00;;;;5029392;28;20196;-86
2023/11/03 08:56:33;;;;;;;22.13;8.00;;;;;15.30;93750.00;;;;5028763;28;20236;-86
2023/11/03 08:59:22;;;;;;;10.80;6.10;;;;;15.10;93732.00;;;;5028055;28;20220;-87
2023/11/03 09:02:11;;;;;;;14.97;8.50;;;;;14.80;93748.00;;;;5026850;28;20217;-86
2023/11/03 09:05:00;;;;;;;25.70;23.53;;;;;14.90;93742.00;;;;5025884;28;20205;-86
2023/11/03 09:07:49;;;;;;;17.60;15.10;;;;;15.20;93736.00;;;;5027364;28;20205;-86
2023/11/03 09:10:40;;;;;;;38.77;30.77;;;;;15.20;93730.00;;;;5029192;28;20216;-87
2023/11/03 09:13:29;;;;;;;16.03;5.13;;;;;14.60;93727.00;;;;5026937;28;20201;-86
2023/11/03 09:16:19;;;;;;;10.77;3.70;;;;;15.10;93730.00;;;;5032621;28;20231;-86
2023/11/03 09:19:08;;;;;;;7.03;2.70;;;;;15.30;93751.00;;;;5027032;28;20205;-85
2023/11/03 09:21:57;;;;;;;12.87;4.23;;;;;15.20;93749.00;;;;5028082;28;20256;-85
2023/11/03 09:24:46;;;;;;;8.83;3.17;;;;;14.80;93735.00;;;;5031693;28;20202;-87
2023/11/03 09:27:38;;;;;;;17.10;5.80;;;;;15.30;93740.00;;;;5025693;28;20225;-86
2023/11/03 09:30:27;;;;;;;15.63;5.10;;;;;15.20;93754.00;;;;5027707;28;20745;-86
2023/11/03 09:33:18;;;;;;;10.60;9.53;;;;;15.40;93752.00;;;;5029410;28;20200;-86
2023/11/03 09:36:08;;;;;;;14.20;5.17;;;;;15.20;93762.00;;;;5026644;28;20241;-86
2023/11/03 09:38:57;;;;;;;20.20;18.00;;;;;15.40;93773.00;;;;5030801;28;20200;-87
2023/11/03 09:41:52;;;;;;;23.20;20.80;;;;;15.50;93781.00;;;;5028229;28;20698;-86
2023/11/03 09:44:43;;;;;;;14.73;9.40;;;;;15.20;93777.00;;;;5029873;28;20209;-86
2023/11/03 09:47:32;;;;;;;12.83;4.93;;;;;15.20;93769.00;;;;5026967;28;20225;-86
2023/11/03 09:50:24;;;;;;;8.80;3.90;;;;;15.30;93770.00;;;;5033129;28;20201;-83
2023/11/03 09:53:22;;;;;;;9.83;6.20;;;;;14.90;93765.00;;;;5029057;28;20208;-86
2023/11/03 09:56:11;;;;;;;24.23;21.70;;;;;15.20;93777.00;;;;5028579;28;20225;-86
2023/11/03 09:59:02;;;;;;;33.73;30.63;;;;;15.10;93765.00;;;;5026345;28;20236;-85
2023/11/03 10:01:53;;;;;;;26.80;23.83;;;;;14.90;93772.00;;;;5029631;28;20221;-86
2023/11/03 10:04:42;;;;;;;8.80;3.00;;;;;15.00;93768.00;;;;5028028;28;20220;-86
2023/11/03 10:07:34;;;;;;;19.47;6.10;;;;;15.20;93765.00;;;;5027119;28;20694;-86
2023/11/03 10:10:23;;;;;;;10.70;3.50;;;;;14.20;93754.00;;;;5028660;28;20208;-86
2023/11/03 10:13:12;;;;;;;9.53;3.10;;;;;14.90;93748.00;;;;5030756;28;20625;-87
2023/11/03 10:16:02;;;;;;;7.80;2.60;;;;;15.00;93735.00;;;;5031316;28;20221;-87
2023/11/03 10:18:54;;;;;;;19.87;6.30;;;;;15.20;93715.00;;;;5030282;28;20209;-88
2023/11/03 10:21:43;;;;;;;11.97;4.10;;;;;15.40;93690.00;;;;5029563;28;20229;-88
2023/11/03 10:24:32;;;;;;;17.00;5.37;;;;;15.40;93698.00;;;;5028972;28;20213;-88
2023/11/03 10:27:21;;;;;;;10.57;3.67;;;;;15.10;93735.00;;;;5030479;28;20236;-89
2023/11/03 10:30:11;;;;;;;9.23;3.13;;;;;15.10;93750.00;;;;5032455;28;20705;-88
2023/11/03 10:33:01;;;;;;;5.77;2.13;;;;;15.10;93757.00;;;;5030092;28;20205;-88
2023/11/03 10:35:53;;;;;;;7.03;2.40;;;;;15.50;93755.00;;;;5025966;28;20229;-88
2023/11/03 10:38:42;;;;;;;11.80;3.90;;;;;15.50;93750.00;;;;5034661;28;20287;-88
2023/11/03 10:41:35;;;;;;;17.80;5.73;;;;;15.40;93736.00;;;;5029961;28;20201;-87
2023/11/03 10:44:27;;;;;;;7.00;2.50;;;;;15.40;93712.00;;;;5033989;28;20682;-87
2023/11/03 10:47:22;;;;;;;9.57;3.37;;;;;15.70;93705.00;;;;5032826;28;20221;-88
2023/11/03 10:50:15;;;;;;;10.73;3.60;;;;;16.10;93715.00;;;;5037155;28;20200;-87
2023/11/03 10:53:14;;;;;;;10.47;3.43;;;;;15.20;93730.00;;;;5031207;28;20193;-86
2023/11/03 10:56:05;;;;;;;8.50;2.90;;;;;15.10;93739.00;;;;5030666;28;20735;-85
2023/11/03 10:59:00;;;;;;;16.63;5.23;;;;;15.30;93732.00;;;;5031648;28;20221;-84
2023/11/03 11:01:52;;;;;;;15.33;5.07;;;;;15.30;93733.00;;;;5031981;28;20228;-85
2023/11/03 11:04:47;;;;;;;18.30;5.73;;;;;14.70;93750.00;;;;5033031;28;20213;-86
2023/11/03 11:07:37;;;;;;;17.43;5.60;;;;;14.50;93745.00;;;;5033895;28;20217;-85
2023/11/03 11:10:38;;;;;;;8.70;3.10;;;;;14.30;93735.00;;;;5030888;28;20213;-86
2023/11/03 11:13:27;;;;;;;17.37;5.47;;;;;13.90;93724.00;;;;5028855;28;20208;-87
2023/11/03 11:16:19;;;;;;;13.27;4.30;;;;;13.10;93746.00;;;;5035286;28;20286;-86
2023/11/03 11:19:10;;;;;;;9.77;4.20;;;;;13.20;93811.00;;;;5029418;28;20577;-85
2023/11/03 11:22:01;;;;;;;16.43;13.73;;;;;13.50;93836.00;;;;5031070;28;20213;-85
2023/11/03 11:24:55;;;;;;;12.60;5.00;;;;;13.40;93828.00;;;;5027231;28;20201;-85
2023/11/03 11:27:51;;;;;;;12.33;5.70;;;;;12.80;93853.00;;;;5031394;28;20208;-85
2023/11/03 11:30:40;;;;;;;21.50;7.67;;;;;13.00;93839.00;;;;5030612;28;20682;-85
2023/11/03 11:33:30;;;;;;;23.17;13.40;;;;;12.90;93829.00;;;;5027802;28;20202;-84
2023/11/03 11:36:22;;;;;;;12.23;7.57;;;;;13.10;93852.00;;;;5029733;28;20590;-84
2023/11/03 11:39:13;;;;;;;12.73;7.10;;;;;12.90;93865.00;;;;5027898;28;20205;-84
2023/11/03 11:42:04;;;;;;;26.60;23.83;;;;;12.80;93860.00;;;;5031718;28;20206;-85
2023/11/03 11:44:55;;;;;;;9.83;3.17;;;;;12.70;93853.00;;;;5030794;28;20213;-84
2023/11/03 11:47:46;;;;;;;11.03;5.17;;;;;12.30;93822.00;;;;5030883;28;20209;-85
2023/11/03 11:50:36;;;;;;;8.80;3.03;;;;;12.40;93816.00;;;;5032196;28;20481;-84
2023/11/03 11:53:27;;;;;;;7.60;2.57;;;;;12.70;93838.00;;;;5025542;28;20656;-84
2023/11/03 11:56:17;;;;;;;6.23;2.07;;;;;12.40;93844.00;;;;5029932;28;20616;-84
2023/11/03 11:59:06;;;;;;;10.23;3.33;;;;;12.90;93859.00;;;;5027987;28;20602;-84
2023/11/03 12:01:57;;;;;;;15.57;6.10;;;;;13.10;93867.00;;;;5032986;28;20263;-84
2023/11/03 12:04:50;;;;;;;8.57;2.93;;;;;13.10;93856.00;;;;5029896;28;20654;-85
2023/11/03 12:07:39;;;;;;;17.53;5.63;;;;;13.00;93860.00;;;;5027606;28;20689;-84
2023/11/03 12:10:33;;;;;;;13.23;4.27;;;;;12.30;93848.00;;;;5027029;28;20212;-84
2023/11/03 12:13:22;;;;;;;5.30;1.83;;;;;12.60;93855.00;;;;5026300;28;20229;-84
2023/11/03 12:16:12;;;;;;;8.77;2.87;;;;;12.50;93862.00;;;;5028335;28;20221;-84
2023/11/03 12:19:04;;;;;;;8.17;2.77;;;;;12.80;93866.00;;;;5032034;28;20208;-85
2023/11/03 12:21:53;;;;;;;8.57;2.83;;;;;12.50;93870.00;;;;5031953;28;20213;-84
2023/11/03 12:24:42;;;;;;;10.77;3.60;;;;;11.80;93892.00;;;;5025421;28;20201;-84
2023/11/03 12:27:31;;;;;;;10.73;3.63;;;;;12.20;93905.00;;;;5024148;28;20222;-84
2023/11/03 12:30:20;;;;;;;5.03;1.83;;;;;12.60;93901.00;;;;5031736;28;20213;-85
2023/11/03 12:33:10;;;;;;;17.93;8.07;;;;;12.80;93914.00;;;;5026188;28;20239;-85
2023/11/03 12:36:01;;;;;;;9.07;3.00;;;;;12.80;93922.00;;;;5029698;28;20225;-85
2023/11/03 12:38:50;;;;;;;23.80;9.70;;;;;12.80;93951.00;;;;5025093;28;20566;-85
2023/11/03 12:41:39;;;;;;;17.90;5.60;;;;;12.70;93937.00;;;;5025900;28;20210;-85
2023/11/03 12:44:31;;;;;;;15.47;4.93;;;;;12.80;93935.00;;;;5025720;28;20225;-85
2023/11/03 12:47:40;;;;;;;8.87;2.90;;;;;12.60;93938.00;;;;5022850;28;20226;-85
2023/11/03 12:50:33;;;;;;;15.10;4.83;;;;;12.60;93951.00;;;;5025267;28;20495;-86
2023/11/03 12:53:25;;;;;;;10.00;3.37;;;;;12.70;93946.00;;;;5036300;28;20228;-86
2023/11/03 12:56:15;;;;;;;12.63;5.20;;;;;12.10;93941.00;;;;5043601;28;20239;-86
2023/11/03 12:59:04;;;;;;;9.03;3.00;;;;;12.20;93936.00;;;;5042810;28;20679;-87
2023/11/03 13:01:53;;;;;;;11.57;3.63;;;;;12.30;93955.00;;;;5033316;28;20280;-87
2023/11/03 13:04:42;;;;;;;13.83;4.57;;;;;12.40;93961.00;;;;5035544;28;20237;-87
2023/11/03 13:07:31;;;;;;;14.97;4.80;;;;;12.00;93954.00;;;;5034191;28;20686;-87
2023/11/03 13:10:22;;;;;;;4.83;1.80;;;;;12.30;93988.00;;;;5034433;28;20209;-87
2023/11/03 13:13:11;;;;;;;10.03;3.27;;;;;12.20;94007.00;;;;5036166;28;20205;-87
2023/11/03 13:16:03;;;;;;;11.40;6.63;;;;;12.20;94007.00;;;;5036526;28;20233;-86
2023/11/03 13:18:52;;;;;;;14.50;4.57;;;;;12.20;94014.00;;;;5032314;28;20209;-85
2023/11/03 13:21:41;;;;;;;11.43;3.57;;;;;12.20;94023.00;;;;5029141;28;20201;-86
2023/11/03 13:24:30;;;;;;;12.87;4.07;;;;;11.80;94014.00;;;;5029315;28;20701;-86
2023/11/03 13:27:21;;;;;;;9.70;3.17;;;;;12.10;94021.00;;;;5029466;28;20236;-87
2023/11/03 13:30:11;;;;;;;8.40;2.80;;;;;12.10;94043.00;;;;5028239;28;20201;-86
2023/11/03 13:33:00;;;;;;;4.57;1.60;;;;;12.00;94065.00;;;;5025429;28;20686;-86
2023/11/03 13:35:49;;;;;;;9.40;3.10;;;;;12.00;94060.00;;;;5027246;28;20316;-86
2023/11/03 13:38:40;;;;;;;11.23;3.70;;;;;11.80;94038.00;;;;5027329;28;20689;-86
2023/11/03 13:41:29;;;;;;;14.37;4.60;;;;;11.80;94047.00;;;;5028484;28;20213;-87
2023/11/03 13:44:19;;;;;;;9.77;3.20;;;;;12.00;94079.00;;;;5027395;28;20229;-85
2023/11/03 13:47:08;;;;;;;17.30;9.87;;;;;12.10;94096.00;;;;5028726;28;20224;-86
2023/11/03 13:49:58;;;;;;;8.40;2.80;;;;;11.90;94110.00;;;;5030965;28;20196;-86
2023/11/03 13:52:49;;;;;;;9.70;3.10;;;;;11.90;94122.00;;;;5027099;28;20638;-86
2023/11/03 13:55:38;;;;;;;14.93;6.47;;;;;11.70;94110.00;;;;5031582;28;20886;-85
2023/11/03 13:58:28;;;;;;;8.73;3.97;;;;;11.70;94123.00;;;;5025077;28;20209;-85
2023/11/03 14:01:19;;;;;;;12.43;5.37;;;;;11.60;94128.00;;;;5027537;28;20205;-86
2023/11/03 14:04:09;;;;;;;10.20;3.37;;;;;11.50;94123.00;;;;5028506;28;20252;-84